Rule, TX (79548)

10:13 PM CST on February 23, 2018 (GMT -0600)
Stamford South | | Change Station

Elev 1624 ft 32.94 °N, 99.80 °W | Updated 20 seconds ago

Fog
Fog
39.0 °F
Feels Like 39 °F
N
0.0
Wind Variable Wind from East
Gusts 0.0 mph

Today
High -- | Low -- °F
--% Chance of Precip.
Yesterday
High -- | Low -- °F
Precip. -- in
Pressure 30.04 in
Visibility 0.1 miles
Clouds
Windchill 39 °F
Dew Point 39 °F
Humidity 99%
Rainfall 0.05 in
Snow Depth Not available.
7:14 AM 6:32 PM
First Quarter, 59% visible
METAR KDYS 240356Z 36004KT 1/8SM R16/5000V5500FT FG VV002 05/05 A3002 RMK AO2A TWR VIS 1/8 SLP173 T00540054
Pressure 30.04 in
Visibility 0.1 miles
Clouds
Windchill 39 °F
Dew Point 39 °F
Humidity 99%
Rainfall 0.05 in
Snow Depth Not available.
7:14 AM 6:32 PM
First Quarter, 59% visible
METAR KDYS 240356Z 36004KT 1/8SM R16/5000V5500FT FG VV002 05/05 A3002 RMK AO2A TWR VIS 1/8 SLP173 T00540054

Get Severe Weather Alerts

Thanks for signing up!

Be on the lookout for a verification email in your inbox.

You'll start receiving the daily forecast at 6 AM.

×

10-Day Weather Forecast

Almanac

Astronomy

Feb. 23, 2018 Rise Set
Actual Time
Civil Twilight
Nautical Twilight
Astronomical Twilight
Moon
Length of Visible Light
Length of Day
Tomorrow will be .
, % of the Moon is Illuminated

Today's Extremes

State Highs State Lows

Community

WunderPhotos

Category 6

Welcome to Category 6. This is the collective home for Weather Underground's featured writeups by Dr. Jeff Masters (right), Bob Henson (left), Chris Burt, and other regular contributors.

Nearby

Air Quality

  Air Quality AQ Index Pollutant
Not available.

Snow Depth

Station Depth Elevation

Earthquake Activity

City Distance Mag. Time & Date
Minimum magnitude displayed is 2.5.

Coastal Water Temperatures

Place Temperature

Stations

Nearby Weather Stations

Station Location Temp. Windchill Dew Point Humidity Wind Precip. Elev Updated Type
                   

Watches & Warnings

There are currently no watches in effect.